Time;durP1;ratioP1;P1;durP2;ratioP2;P2;SDS_P1;SDS_P2;PMS_P1;PMS_P2;Temp;Humidity;BMP_temperature;BMP_pressure;BME280_temperature;BME280_humidity;BME280_pressure;Samples;Min_cycle;Max_cycle;Signal;HPM_P1;HPM_P2
2023/07/10 00:01:14;;;;;;;5.90;4.13;;;27.90;50.90;;;;;;6092752;23;89013;-90
2023/07/10 00:03:39;;;;;;;4.93;3.78;;;27.90;50.90;;;;;;6117028;22;86706;-90
2023/07/10 00:06:10;;;;;;;4.63;3.85;;;27.90;51.00;;;;;;6091347;23;86097;-88
2023/07/10 00:08:35;;;;;;;4.28;3.70;;;27.90;51.00;;;;;;6091236;23;85844;-90
2023/07/10 00:11:01;;;;;;;5.45;3.53;;;27.90;50.90;;;;;;6118061;23;86412;-90
2023/07/10 00:13:28;;;;;;;4.53;4.03;;;27.90;51.10;;;;;;6119494;23;85598;-89
2023/07/10 00:15:54;;;;;;;4.95;3.72;;;27.90;51.10;;;;;;6116959;22;86092;-90
2023/07/10 00:18:22;;;;;;;3.90;3.50;;;27.90;51.20;;;;;;6118326;23;86185;-90
2023/07/10 00:20:48;;;;;;;4.60;3.80;;;27.90;51.20;;;;;;6091955;23;89451;-90
2023/07/10 00:23:15;;;;;;;5.28;4.00;;;27.80;51.10;;;;;;6118120;23;86251;-89
2023/07/10 00:25:42;;;;;;;5.18;4.10;;;27.80;51.00;;;;;;6118198;22;86465;-90
2023/07/10 00:28:16;;;;;;;4.05;3.17;;;27.80;51.00;;;;;;6118469;22;86082;-89
2023/07/10 00:30:45;;;;;;;4.60;3.28;;;27.80;50.90;;;;;;6091372;23;88270;-90
2023/07/10 00:33:11;;;;;;;3.78;3.38;;;27.80;50.90;;;;;;6090708;23;88788;-90
2023/07/10 00:35:37;;;;;;;5.10;3.65;;;27.80;51.10;;;;;;6117496;22;86536;-90
2023/07/10 00:38:16;;;;;;;4.55;3.55;;;27.80;51.10;;;;;;6089201;23;86140;-90
2023/07/10 00:40:45;;;;;;;3.83;3.22;;;27.80;51.10;;;;;;6089918;23;89313;-89
2023/07/10 00:43:37;;;;;;;3.83;3.42;;;27.80;51.20;;;;;;6092715;23;88802;-89
2023/07/10 00:46:24;;;;;;;4.22;3.50;;;27.80;51.90;;;;;;6091347;23;89802;-90
2023/07/10 00:49:12;;;;;;;4.07;3.08;;;27.80;51.20;;;;;;6117741;23;88257;-89
2023/07/10 00:52:11;;;;;;;4.45;3.40;;;27.80;51.10;;;;;;6116820;23;86918;-89
2023/07/10 00:54:41;;;;;;;5.25;3.58;;;27.80;51.20;;;;;;6102562;23;86473;-90
2023/07/10 00:57:14;;;;;;;3.63;3.25;;;27.80;51.10;;;;;;6089844;23;85654;-88
2023/07/10 00:59:41;;;;;;;4.55;3.55;;;27.80;51.10;;;;;;6116482;23;86209;-89
2023/07/10 01:02:07;;;;;;;3.13;2.83;;;27.80;51.10;;;;;;6089785;23;89190;-89
2023/07/10 01:04:44;;;;;;;3.80;3.28;;;27.80;51.10;;;;;;6091254;23;87511;-90
2023/07/10 01:07:12;;;;;;;3.75;3.35;;;27.80;51.20;;;;;;6091267;23;89216;-89
2023/07/10 01:09:43;;;;;;;3.47;3.17;;;27.80;51.30;;;;;;6091289;23;86211;-90
2023/07/10 01:12:08;;;;;;;3.97;3.58;;;27.80;51.20;;;;;;6091201;23;89606;-91
2023/07/10 01:14:35;;;;;;;4.18;3.38;;;27.70;51.40;;;;;;6090415;23;88693;-89
2023/07/10 01:17:05;;;;;;;4.60;3.40;;;27.70;51.30;;;;;;6118279;22;86246;-89
2023/07/10 01:19:33;;;;;;;4.80;3.35;;;27.70;51.10;;;;;;6092436;23;86364;-89
2023/07/10 01:21:59;;;;;;;4.87;3.40;;;27.70;51.10;;;;;;6117273;23;87672;-91
2023/07/10 01:24:25;;;;;;;4.32;3.50;;;27.70;51.30;;;;;;6091344;23;87119;-88
2023/07/10 01:26:52;;;;;;;4.55;3.65;;;27.70;51.10;;;;;;6091236;23;86314;-90
2023/07/10 01:29:25;;;;;;;3.80;3.10;;;27.70;51.40;;;;;;6090889;23;86317;-89
2023/07/10 01:31:54;;;;;;;4.68;3.40;;;27.70;51.40;;;;;;6090561;23;88310;-89
2023/07/10 01:34:35;;;;;;;4.72;2.92;;;27.70;51.40;;;;;;6118709;23;85904;-90
2023/07/10 01:37:04;;;;;;;5.05;3.72;;;27.70;51.30;;;;;;6090354;23;91488;-90
2023/07/10 01:39:36;;;;;;;4.30;3.45;;;27.70;51.60;;;;;;6090850;23;86145;-90
2023/07/10 01:42:02;;;;;;;4.13;3.30;;;27.70;51.70;;;;;;6117353;23;86948;-90
2023/07/10 01:44:33;;;;;;;3.35;3.05;;;27.70;51.50;;;;;;6083172;23;87533;-89
2023/07/10 01:47:01;;;;;;;4.03;3.13;;;27.70;51.40;;;;;;6117241;22;85667;-90
2023/07/10 01:49:35;;;;;;;3.58;3.25;;;27.70;51.40;;;;;;6091831;23;86423;-90
2023/07/10 01:52:03;;;;;;;3.67;3.00;;;27.70;51.40;;;;;;6117476;23;89862;-91
2023/07/10 01:54:31;;;;;;;3.00;2.70;;;27.70;51.30;;;;;;6091883;23;88858;-90
2023/07/10 01:56:57;;;;;;;3.50;3.20;;;27.60;51.40;;;;;;6067646;23;85954;-90
2023/07/10 01:59:22;;;;;;;4.93;3.20;;;27.70;51.60;;;;;;6118242;23;85592;-88
2023/07/10 02:01:49;;;;;;;4.80;3.53;;;27.60;51.30;;;;;;6091437;23;88099;-89
2023/07/10 02:04:15;;;;;;;3.90;3.22;;;27.60;51.60;;;;;;6118674;23;87435;-89
2023/07/10 02:06:41;;;;;;;3.70;3.30;;;27.60;51.50;;;;;;6091997;23;86294;-89
2023/07/10 02:09:06;;;;;;;3.30;2.80;;;27.60;51.60;;;;;;6119593;23;85540;-89
2023/07/10 02:11:34;;;;;;;3.22;2.92;;;27.60;51.50;;;;;;6091942;23;88811;-89
2023/07/10 02:14:05;;;;;;;3.72;3.30;;;27.60;51.40;;;;;;6065819;23;88452;-90
2023/07/10 02:16:34;;;;;;;3.03;2.72;;;27.60;51.40;;;;;;6091122;23;86150;-88
2023/07/10 02:18:59;;;;;;;;;;;27.60;51.50;;;;;;6093880;23;86007;-90
2023/07/10 02:21:25;;;;;;;3.72;2.65;;;27.60;51.30;;;;;;6092557;23;87966;-90
2023/07/10 02:23:54;;;;;;;3.65;2.90;;;27.60;51.30;;;;;;6092373;23;89089;-89
2023/07/10 02:26:19;;;;;;;3.38;2.83;;;27.60;51.50;;;;;;6090921;23;86000;-90
2023/07/10 02:28:45;;;;;;;2.88;2.60;;;27.60;51.60;;;;;;6091378;23;86296;-90
2023/07/10 02:31:11;;;;;;;3.15;2.85;;;27.60;51.50;;;;;;6093253;23;88429;-91
2023/07/10 02:33:37;;;;;;;4.05;3.00;;;27.60;51.50;;;;;;6118424;23;85919;-89
2023/07/10 02:36:03;;;;;;;3.33;2.78;;;27.60;51.50;;;;;;6117983;22;86509;-89
2023/07/10 02:38:29;;;;;;;3.42;3.05;;;27.60;51.50;;;;;;6090213;23;86398;-90
2023/07/10 02:40:56;;;;;;;3.58;3.13;;;27.60;51.60;;;;;;6090626;23;89152;-89
2023/07/10 02:43:22;;;;;;;3.33;2.78;;;27.60;51.60;;;;;;6092598;23;88704;-91
2023/07/10 02:45:47;;;;;;;3.38;2.83;;;27.60;51.50;;;;;;6092190;23;86037;-91
2023/07/10 02:48:13;;;;;;;3.65;3.20;;;27.60;51.50;;;;;;6091522;23;86323;-89
2023/07/10 02:50:39;;;;;;;4.28;3.40;;;27.60;51.50;;;;;;6119110;23;86673;-89
2023/07/10 02:53:07;;;;;;;3.67;3.30;;;27.60;51.60;;;;;;6091267;23;88975;-89
2023/07/10 02:55:33;;;;;;;4.90;3.30;;;27.60;51.50;;;;;;6092592;23;85864;-89
2023/07/10 02:58:00;;;;;;;3.60;3.08;;;27.60;51.30;;;;;;6091135;23;85815;-90
2023/07/10 03:00:25;;;;;;;3.65;3.03;;;27.60;51.50;;;;;;6118791;23;86781;-88
2023/07/10 03:02:54;;;;;;;3.95;3.25;;;27.60;51.40;;;;;;6091147;23;87478;-90
2023/07/10 03:05:20;;;;;;;3.45;3.10;;;27.60;51.40;;;;;;6091698;23;85842;-89
2023/07/10 03:07:46;;;;;;;3.90;2.95;;;27.50;51.40;;;;;;6092589;23;86216;-88
2023/07/10 03:10:11;;;;;;;2.88;2.53;;;27.50;51.40;;;;;;6093190;23;89695;-90
2023/07/10 03:12:37;;;;;;;3.05;2.75;;;27.50;51.30;;;;;;6118495;23;86120;-89
2023/07/10 03:15:03;;;;;;;3.78;3.25;;;27.50;51.50;;;;;;6117893;22;86009;-90
2023/07/10 03:17:29;;;;;;;2.63;2.42;;;27.50;51.40;;;;;;6118556;23;85964;-90
2023/07/10 03:19:55;;;;;;;3.88;2.90;;;27.50;51.30;;;;;;6119619;23;86622;-90
2023/07/10 03:22:20;;;;;;;3.60;2.75;;;27.50;51.50;;;;;;6119136;23;85872;-90
2023/07/10 03:24:46;;;;;;;3.15;2.72;;;27.50;52.10;;;;;;6091655;22;86022;-90
2023/07/10 03:27:11;;;;;;;3.63;2.95;;;27.50;51.20;;;;;;6090786;23;85795;-90
2023/07/10 03:29:37;;;;;;;3.33;2.83;;;27.60;51.40;;;;;;6117357;23;87848;-90
2023/07/10 03:32:03;;;;;;;3.42;2.97;;;27.60;51.40;;;;;;6090573;23;88388;-90
2023/07/10 03:34:29;;;;;;;3.65;3.05;;;27.50;51.40;;;;;;6092417;23;86320;-90
2023/07/10 03:36:55;;;;;;;3.30;3.00;;;27.50;51.30;;;;;;6091758;23;86032;-90
2023/07/10 03:39:21;;;;;;;2.80;2.60;;;27.50;51.40;;;;;;6117060;23;86277;-90
2023/07/10 03:41:46;;;;;;;2.90;2.63;;;27.50;51.10;;;;;;6092284;23;87551;-89
2023/07/10 03:44:13;;;;;;;3.53;2.63;;;27.50;51.40;;;;;;6117048;23;85891;-89
2023/07/10 03:46:38;;;;;;;3.20;2.83;;;27.50;51.30;;;;;;6091728;23;85899;-90
2023/07/10 03:49:04;;;;;;;3.90;3.22;;;27.50;51.30;;;;;;6093381;23;88889;-90
2023/07/10 03:51:33;;;;;;;3.47;2.58;;;27.50;51.30;;;;;;6091249;23;88574;-89
2023/07/10 03:53:58;;;;;;;;;;;27.50;51.20;;;;;;6118537;23;85845;-89
2023/07/10 03:56:24;;;;;;;2.97;2.40;;;27.50;51.30;;;;;;6119033;22;86113;-90
2023/07/10 03:58:49;;;;;;;3.15;2.85;;;27.50;51.30;;;;;;6118728;23;86497;-89
2023/07/10 04:01:16;;;;;;;2.88;2.53;;;27.50;51.40;;;;;;6093337;23;88946;-90
2023/07/10 04:03:43;;;;;;;2.80;2.50;;;27.50;51.40;;;;;;6092779;23;86332;-90
2023/07/10 04:06:11;;;;;;;3.15;2.90;;;27.50;51.30;;;;;;6092159;23;86586;-90
2023/07/10 04:08:38;;;;;;;;;;;27.50;51.50;;;;;;6091985;23;88284;-90
2023/07/10 04:11:20;;;;;;;2.58;2.38;;;27.50;51.40;;;;;;6092031;23;88050;-89
2023/07/10 04:13:47;;;;;;;3.17;2.70;;;27.50;51.50;;;;;;6090752;23;85722;-89
2023/07/10 04:16:19;;;;;;;2.83;2.40;;;27.50;51.30;;;;;;6091242;23;86094;-90
2023/07/10 04:18:46;;;;;;;3.20;2.80;;;27.50;51.30;;;;;;6092198;23;88001;-91
2023/07/10 04:21:15;;;;;;;2.90;2.45;;;27.50;51.30;;;;;;6091777;23;87745;-90
2023/07/10 04:23:41;;;;;;;3.55;2.63;;;27.50;51.20;;;;;;6092698;23;86490;-90
2023/07/10 04:26:21;;;;;;;3.33;2.65;;;27.50;51.40;;;;;;6115510;22;86208;-90
2023/07/10 04:28:48;;;;;;;4.15;2.67;;;27.50;51.40;;;;;;6119145;23;86525;-90
2023/07/10 04:31:16;;;;;;;3.30;2.80;;;27.50;51.50;;;;;;6119834;23;86499;-90
2023/07/10 04:33:49;;;;;;;3.00;2.70;;;27.50;51.40;;;;;;6092594;23;85997;-90
2023/07/10 04:36:14;;;;;;;2.97;2.67;;;27.40;51.40;;;;;;6092298;23;86179;-90
2023/07/10 04:38:40;;;;;;;3.05;2.63;;;27.40;51.40;;;;;;6090764;23;88907;-91
2023/07/10 04:41:08;;;;;;;2.88;2.58;;;27.40;51.30;;;;;;6091004;23;87816;-90
2023/07/10 04:43:34;;;;;;;3.50;2.55;;;27.50;51.30;;;;;;6092964;23;86145;-90
2023/07/10 04:46:06;;;;;;;4.22;2.72;;;27.50;51.30;;;;;;6118769;22;85818;-90
2023/07/10 04:48:32;;;;;;;3.85;2.33;;;27.50;51.30;;;;;;6090560;23;89341;-90
2023/07/10 04:51:03;;;;;;;3.28;2.85;;;27.60;51.40;;;;;;6117873;23;86522;-89
2023/07/10 04:53:30;;;;;;;3.10;2.67;;;27.60;51.30;;;;;;6091551;23;87020;-89
2023/07/10 04:55:56;;;;;;;3.00;2.58;;;27.60;51.30;;;;;;6091881;23;86355;-88
2023/07/10 04:58:25;;;;;;;2.90;2.60;;;27.70;51.20;;;;;;6091742;23;88384;-90
2023/07/10 05:00:59;;;;;;;3.55;2.85;;;27.70;51.10;;;;;;6116706;23;86371;-89
2023/07/10 05:03:25;;;;;;;2.95;2.60;;;27.70;51.30;;;;;;6089723;23;91841;-89
2023/07/10 05:05:56;;;;;;;3.72;2.92;;;27.70;51.00;;;;;;6090147;23;86422;-89
2023/07/10 05:08:22;;;;;;;2.63;2.42;;;27.70;51.40;;;;;;6117386;23;87177;-89
2023/07/10 05:10:51;;;;;;;2.80;2.53;;;27.70;51.50;;;;;;6116516;23;86267;-88
2023/07/10 05:13:22;;;;;;;3.63;2.55;;;27.70;51.30;;;;;;6093482;23;86252;-89
2023/07/10 05:15:48;;;;;;;230.50;49.35;;;27.70;51.40;;;;;;6093820;23;86165;-93
2023/07/10 05:18:18;;;;;;;256.25;52.97;;;27.80;50.70;;;;;;6084735;23;88690;-94
2023/07/10 05:20:48;;;;;;;161.60;33.35;;;27.70;50.00;;;;;;6094870;23;88183;-92
2023/07/10 05:23:27;;;;;;;;;;;;;;;;;;;;;
2023/07/10 05:25:55;;;;;;;46.30;12.50;;;27.50;49.90;;;;;;6122689;22;85976;-94
2023/07/10 05:28:33;;;;;;;31.52;9.45;;;27.40;49.60;;;;;;6096799;23;89083;-93
2023/07/10 05:31:01;;;;;;;31.58;5.95;;;27.20;50.00;;;;;;6100519;23;86261;-94
2023/07/10 05:37:34;;;;;;;12.40;3.78;;;27.20;49.80;;;;;;6049440;22;86496;-95
2023/07/10 05:40:15;;;;;;;11.75;3.08;;;27.20;49.60;;;;;;6161316;22;93943;-93
2023/07/10 05:43:09;;;;;;;7.82;2.92;;;27.20;49.40;;;;;;6136664;22;85891;-95
2023/07/10 05:48:47;;;;;;;8.68;2.63;;;27.20;49.20;;;;;;6169161;22;85448;-95
2023/07/10 05:52:23;;;;;;;7.03;2.65;;;27.20;49.50;;;;;;6109980;22;89471;-95
2023/07/10 05:54:55;;;;;;;5.82;2.15;;;27.20;49.20;;;;;;6127892;22;87396;-94
2023/07/10 05:57:25;;;;;;;5.93;2.70;;;27.30;48.90;;;;;;6164359;22;85797;-96
2023/07/10 05:59:57;;;;;;;5.25;2.28;;;27.30;48.50;;;;;;6156841;22;85828;-94
2023/07/10 06:02:22;;;;;;;4.82;2.20;;;27.40;49.00;;;;;;6126651;22;87995;-92
2023/07/10 06:04:48;;;;;;;3.65;1.90;;;27.20;47.70;;;;;;6121183;22;88424;-91
2023/07/10 06:07:24;;;;;;;10.50;2.42;;;26.80;48.70;;;;;;6156130;22;86408;-94
2023/07/10 06:09:59;;;;;;;18.23;3.05;;;26.80;49.00;;;;;;6130877;22;85928;-95
2023/07/10 06:12:25;;;;;;;9.07;1.88;;;27.10;48.90;;;;;;6126884;22;89557;-86
2023/07/10 06:14:51;;;;;;;12.48;2.30;;;27.10;48.70;;;;;;6118928;22;86251;-88
2023/07/10 06:17:18;;;;;;;10.20;2.17;;;27.20;48.90;;;;;;6081142;22;85913;-89
2023/07/10 06:20:13;;;;;;;13.93;2.15;;;27.40;48.60;;;;;;6127364;22;86314;-95
2023/07/10 06:23:14;;;;;;;9.65;1.77;;;27.40;48.00;;;;;;6153461;22;90325;-96
2023/07/10 06:52:06;;;;;;;26.00;2.95;;;27.70;48.00;;;;;;6160861;22;87816;-90
2023/07/10 06:54:33;;;;;;;11.38;2.40;;;27.70;48.20;;;;;;6130100;22;89011;-95
2023/07/10 06:57:05;;;;;;;12.52;2.55;;;27.80;48.10;;;;;;6135457;22;87479;-93
2023/07/10 06:59:34;;;;;;;20.08;2.45;;;27.90;48.40;;;;;;6135269;22;86613;-93
2023/07/10 07:01:59;;;;;;;;;;;27.90;48.30;;;;;;6140427;22;86182;-91
2023/07/10 07:15:23;;;;;;;6.47;1.80;;;28.20;46.60;;;;;;6167779;22;87798;-96
2023/07/10 07:17:49;;;;;;;9.13;2.45;;;28.20;46.90;;;;;;6152893;22;89710;-93
2023/07/10 07:20:31;;;;;;;10.65;2.70;;;28.20;47.30;;;;;;6128691;22;85775;-94
2023/07/10 07:22:57;;;;;;;6.75;2.00;;;27.90;47.10;;;;;;6119732;22;86259;-94
2023/07/10 07:25:23;;;;;;;8.73;1.90;;;27.90;46.80;;;;;;6127360;22;89026;-94
2023/07/10 07:27:49;;;;;;;15.40;2.42;;;28.00;46.70;;;;;;6106557;22;88927;-94
2023/07/10 07:30:15;;;;;;;5.70;1.63;;;28.10;45.40;;;;;;6146201;22;86288;-95
2023/07/10 07:32:41;;;;;;;5.40;1.83;;;28.20;45.10;;;;;;6118984;22;85978;-93
2023/07/10 07:35:06;;;;;;;5.53;1.70;;;28.30;44.70;;;;;;6133595;22;86285;-95
2023/07/10 07:37:32;;;;;;;7.45;1.75;;;28.30;44.20;;;;;;6148087;22;87449;-94
2023/07/10 07:40:00;;;;;;;8.95;1.88;;;28.30;43.90;;;;;;6142754;22;86291;-94
2023/07/10 07:42:26;;;;;;;7.50;1.65;;;28.40;44.10;;;;;;6103594;22;86103;-92
2023/07/10 07:44:52;;;;;;;7.05;1.77;;;28.50;44.60;;;;;;6143285;22;85895;-92
2023/07/10 07:47:18;;;;;;;7.38;1.63;;;28.50;44.40;;;;;;6116248;22;88714;-91
2023/07/10 07:49:44;;;;;;;5.50;1.52;;;28.30;43.60;;;;;;6114565;22;86143;-91
2023/07/10 07:52:09;;;;;;;5.95;1.73;;;28.10;43.80;;;;;;6117572;22;86233;-90
2023/07/10 07:54:35;;;;;;;4.75;1.80;;;28.00;43.90;;;;;;6141699;22;86436;-91
2023/07/10 07:57:00;;;;;;;4.30;1.80;;;28.00;43.70;;;;;;6115996;22;88580;-90
2023/07/10 07:59:26;;;;;;;4.38;1.50;;;27.90;43.50;;;;;;6117150;22;86010;-90
2023/07/10 08:01:52;;;;;;;3.13;1.40;;;27.80;43.60;;;;;;6144068;22;85850;-90
2023/07/10 08:04:19;;;;;;;4.80;1.50;;;27.70;43.70;;;;;;6118119;22;88995;-91
2023/07/10 08:06:46;;;;;;;4.93;1.60;;;27.70;43.60;;;;;;6144376;22;92528;-90
2023/07/10 08:09:12;;;;;;;3.40;1.65;;;27.70;44.00;;;;;;6115931;22;86009;-92
2023/07/10 08:11:37;;;;;;;2.97;1.48;;;27.70;44.40;;;;;;6114883;22;86093;-90
2023/07/10 08:14:03;;;;;;;4.43;1.60;;;27.70;43.90;;;;;;6115465;22;88871;-91
2023/07/10 08:16:29;;;;;;;3.35;1.70;;;27.80;43.60;;;;;;6117545;22;87839;-92
2023/07/10 08:18:55;;;;;;;3.72;1.50;;;27.70;43.40;;;;;;6117112;22;86103;-90
2023/07/10 08:21:20;;;;;;;3.50;1.52;;;27.70;43.60;;;;;;6116996;22;86669;-89
2023/07/10 08:23:46;;;;;;;3.67;1.23;;;27.70;43.60;;;;;;6118430;22;89601;-89
2023/07/10 08:26:12;;;;;;;3.22;1.40;;;27.70;43.50;;;;;;6117954;22;89033;-90
2023/07/10 08:28:37;;;;;;;2.38;1.38;;;27.60;43.60;;;;;;6144932;22;85809;-92
2023/07/10 08:31:03;;;;;;;2.45;1.20;;;27.70;43.80;;;;;;6121911;22;85975;-91
2023/07/10 08:33:29;;;;;;;3.60;1.33;;;27.70;43.60;;;;;;6114183;22;89579;-90
2023/07/10 08:36:00;;;;;;;4.30;1.65;;;27.80;43.60;;;;;;6140928;22;89410;-90
2023/07/10 08:38:26;;;;;;;3.78;1.60;;;27.80;44.00;;;;;;6113332;22;86175;-92
2023/07/10 08:40:56;;;;;;;5.50;1.60;;;27.80;43.80;;;;;;6113833;22;85806;-93
2023/07/10 08:43:28;;;;;;;4.05;1.48;;;27.70;43.90;;;;;;6140113;22;86477;-92
2023/07/10 08:46:02;;;;;;;5.60;1.92;;;27.80;44.10;;;;;;6112101;22;89299;-92
2023/07/10 08:48:36;;;;;;;5.22;1.38;;;27.70;44.60;;;;;;6140309;22;86520;-90
2023/07/10 08:51:30;;;;;;;3.25;1.40;;;27.90;44.50;;;;;;6113355;22;86658;-91
2023/07/10 08:54:03;;;;;;;4.18;1.83;;;27.90;44.10;;;;;;6134646;22;86272;-92
2023/07/10 08:56:34;;;;;;;7.07;1.50;;;27.90;43.50;;;;;;6114882;22;88956;-96
2023/07/10 08:59:22;;;;;;;5.35;1.65;;;27.90;44.20;;;;;;6115715;22;86001;-92
2023/07/10 09:01:48;;;;;;;8.18;1.80;;;27.80;43.80;;;;;;6142824;22;86665;-93
2023/07/10 09:04:19;;;;;;;8.43;1.45;;;27.80;44.10;;;;;;6117737;22;87832;-92
2023/07/10 09:06:56;;;;;;;6.30;2.10;;;27.90;44.20;;;;;;6143590;22;86030;-93
2023/07/10 09:09:45;;;;;;;7.65;1.70;;;27.90;43.90;;;;;;6141492;22;86336;-90
2023/07/10 09:12:39;;;;;;;3.05;1.45;;;27.90;43.40;;;;;;6142599;22;86060;-90
2023/07/10 09:15:15;;;;;;;3.22;1.20;;;27.80;43.00;;;;;;6135366;22;86438;-89
2023/07/10 09:18:06;;;;;;;5.68;1.70;;;27.80;43.50;;;;;;6141092;22;86765;-90
2023/07/10 09:20:32;;;;;;;3.78;1.20;;;27.80;43.50;;;;;;6143278;22;86215;-90
2023/07/10 09:22:59;;;;;;;3.45;1.60;;;27.80;43.90;;;;;;6115967;22;86240;-90
2023/07/10 09:25:25;;;;;;;5.97;1.58;;;27.90;43.90;;;;;;6116727;22;89108;-89
2023/07/10 09:27:51;;;;;;;3.40;1.55;;;28.00;43.70;;;;;;6143608;22;86525;-88
2023/07/10 09:30:26;;;;;;;5.72;1.55;;;28.10;44.30;;;;;;6144247;22;85718;-86
2023/07/10 09:33:03;;;;;;;10.75;1.88;;;28.10;44.90;;;;;;6135829;22;86040;-89
2023/07/10 09:35:30;;;;;;;5.93;1.90;;;28.10;45.20;;;;;;6115008;22;89374;-90
2023/07/10 09:37:56;;;;;;;13.23;2.03;;;28.10;45.90;;;;;;6114891;22;88983;-90
2023/07/10 09:40:40;;;;;;;14.15;2.28;;;28.10;46.40;;;;;;6142518;22;86199;-91
2023/07/10 09:43:16;;;;;;;14.65;2.33;;;28.10;46.20;;;;;;6141399;22;85888;-91
2023/07/10 09:45:47;;;;;;;14.82;2.25;;;28.10;46.60;;;;;;6140860;22;86203;-92
2023/07/10 09:48:21;;;;;;;9.80;2.40;;;28.10;47.60;;;;;;6112754;22;89061;-91
2023/07/10 09:50:50;;;;;;;16.60;2.55;;;28.00;47.90;;;;;;6142664;22;85757;-92
2023/07/10 09:53:22;;;;;;;;;;;28.00;48.20;;;;;;6143888;22;86198;-96
2023/07/10 09:55:48;;;;;;;13.18;2.33;;;28.00;48.80;;;;;;6120151;22;89637;-90
2023/07/10 09:58:13;;;;;;;15.02;2.28;;;28.00;48.80;;;;;;6144135;22;85782;-92
2023/07/10 10:00:44;;;;;;;10.60;1.92;;;28.00;49.00;;;;;;6140342;22;86071;-91
2023/07/10 10:03:19;;;;;;;15.98;2.05;;;28.10;49.00;;;;;;6113481;22;85895;-90
2023/07/10 10:05:56;;;;;;;13.43;2.13;;;28.00;48.90;;;;;;6116651;22;88668;-95
2023/07/10 10:08:43;;;;;;;17.58;2.50;;;28.10;49.50;;;;;;6114117;22;88402;-94
2023/07/10 10:11:11;;;;;;;9.70;2.22;;;28.10;49.80;;;;;;6115818;22;85619;-95
2023/07/10 10:14:00;;;;;;;14.18;2.40;;;28.10;49.90;;;;;;6118979;22;86176;-92
2023/07/10 10:16:35;;;;;;;9.45;1.98;;;28.00;50.10;;;;;;6148982;22;86276;-92
2023/07/10 10:19:20;;;;;;;16.55;1.90;;;28.10;50.10;;;;;;6121640;22;92756;-94
2023/07/10 10:21:46;;;;;;;9.52;2.60;;;28.20;49.70;;;;;;6119228;22;85902;-93
2023/07/10 10:24:13;;;;;;;6.25;2.13;;;28.30;49.80;;;;;;6142618;22;86353;-90
2023/07/10 10:26:46;;;;;;;11.98;2.00;;;28.30;49.60;;;;;;6112820;22;88885;-87
2023/07/10 10:29:14;;;;;;;9.02;2.10;;;28.40;48.90;;;;;;6141657;22;86362;-89
2023/07/10 10:31:52;;;;;;;11.15;2.22;;;28.50;48.60;;;;;;6141520;22;86011;-87
2023/07/10 10:34:49;;;;;;;11.77;2.50;;;28.50;48.70;;;;;;6141847;22;85910;-88
2023/07/10 10:37:33;;;;;;;11.40;2.53;;;28.60;48.80;;;;;;6113258;22;94441;-87
2023/07/10 10:40:19;;;;;;;13.07;2.00;;;28.60;48.20;;;;;;6141081;22;86059;-87
2023/07/10 10:43:11;;;;;;;7.13;1.50;;;28.70;48.20;;;;;;6115135;22;86144;-87
2023/07/10 10:45:51;;;;;;;8.68;1.65;;;28.60;48.20;;;;;;6112779;22;86405;-88
2023/07/10 10:48:30;;;;;;;7.78;1.90;;;28.70;48.20;;;;;;6140965;22;87168;-88
2023/07/10 10:51:27;;;;;;;8.15;2.25;;;28.60;48.10;;;;;;6140013;22;86601;-87
2023/07/10 10:54:07;;;;;;;10.85;2.00;;;28.60;48.40;;;;;;6111738;22;86508;-86
2023/07/10 10:56:50;;;;;;;8.10;2.22;;;28.70;48.50;;;;;;6138695;22;86108;-86
2023/07/10 11:00:07;;;;;;;5.43;1.95;;;28.70;48.20;;;;;;6113277;22;89083;-87
2023/07/10 11:02:42;;;;;;;9.47;2.13;;;28.70;48.30;;;;;;6116200;22;88944;-86
2023/07/10 11:05:33;;;;;;;7.43;1.95;;;28.80;48.00;;;;;;6117013;22;86535;-89
2023/07/10 11:08:05;;;;;;;9.85;2.20;;;28.70;48.20;;;;;;6143628;22;86462;-85
2023/07/10 11:10:38;;;;;;;6.28;1.75;;;28.80;48.30;;;;;;6142656;22;86912;-88
2023/07/10 11:13:05;;;;;;;7.88;1.90;;;28.80;48.00;;;;;;6144157;22;90695;-88
2023/07/10 11:15:32;;;;;;;7.10;1.70;;;28.90;47.80;;;;;;6142567;22;86352;-87
2023/07/10 11:17:59;;;;;;;9.68;1.60;;;28.90;47.60;;;;;;6142273;22;85726;-87
2023/07/10 11:20:26;;;;;;;8.30;1.85;;;28.80;47.60;;;;;;6110759;22;89092;-91
2023/07/10 11:22:56;;;;;;;8.18;1.92;;;28.60;47.80;;;;;;6113075;22;87650;-87
2023/07/10 11:25:43;;;;;;;9.88;2.47;;;28.50;47.80;;;;;;6116261;22;86135;-88
2023/07/10 11:28:27;;;;;;;9.65;5.78;;;28.50;48.10;;;;;;6114180;22;88870;-85
2023/07/10 11:31:21;;;;;;;13.25;9.80;;;28.50;48.20;;;;;;6139420;22;86961;-90
2023/07/10 11:34:06;;;;;;;12.90;9.95;;;28.70;48.20;;;;;;6118041;22;89222;-86
2023/07/10 11:36:38;;;;;;;22.38;9.45;;;28.80;47.90;;;;;;6115252;22;86494;-88
2023/07/10 11:39:07;;;;;;;10.15;8.50;;;28.80;47.80;;;;;;6115363;22;86402;-87
2023/07/10 11:41:42;;;;;;;10.80;7.78;;;28.90;47.70;;;;;;6142017;22;86714;-87
2023/07/10 11:44:12;;;;;;;13.13;7.55;;;28.80;48.60;;;;;;6138697;22;86469;-87
2023/07/10 11:46:56;;;;;;;12.07;8.10;;;28.80;47.60;;;;;;6113596;22;86120;-86
2023/07/10 11:49:23;;;;;;;12.18;7.35;;;28.80;47.60;;;;;;6116780;22;85977;-88
2023/07/10 11:52:09;;;;;;;13.20;7.05;;;28.90;47.10;;;;;;6143994;22;86483;-88
2023/07/10 11:54:39;;;;;;;11.52;6.50;;;28.80;47.10;;;;;;6143369;22;86423;-87
2023/07/10 11:57:05;;;;;;;10.10;6.05;;;28.70;47.10;;;;;;6142086;22;86429;-88
2023/07/10 11:59:33;;;;;;;13.23;6.35;;;28.60;47.20;;;;;;6113656;22;86390;-86
2023/07/10 12:01:58;;;;;;;13.53;6.27;;;28.70;47.10;;;;;;6140112;22;86537;-89
2023/07/10 12:04:26;;;;;;;10.25;6.20;;;28.50;47.50;;;;;;6115107;22;88707;-89
2023/07/10 12:06:52;;;;;;;12.98;5.63;;;28.50;47.70;;;;;;6140805;22;86002;-88
2023/07/10 12:09:17;;;;;;;10.50;6.60;;;28.50;47.70;;;;;;6140412;22;86444;-87
2023/07/10 12:11:46;;;;;;;7.65;5.35;;;28.50;47.50;;;;;;6141458;22;86497;-86
2023/07/10 12:14:16;;;;;;;7.78;5.07;;;28.50;47.40;;;;;;6140956;22;86392;-87
2023/07/10 12:16:48;;;;;;;10.50;5.10;;;28.50;47.10;;;;;;6114916;22;86507;-89
2023/07/10 12:19:18;;;;;;;9.75;4.97;;;28.60;47.60;;;;;;6115574;22;86755;-91
2023/07/10 12:21:44;;;;;;;7.38;5.30;;;28.60;47.60;;;;;;6138126;22;87359;-89
2023/07/10 12:24:16;;;;;;;8.98;4.70;;;28.60;47.30;;;;;;6141851;22;86310;-90
2023/07/10 12:26:42;;;;;;;6.55;4.47;;;28.60;47.40;;;;;;6114606;22;86472;-87
2023/07/10 12:29:15;;;;;;;9.88;4.60;;;28.80;47.40;;;;;;6141586;22;86259;-89
2023/07/10 12:31:42;;;;;;;7.55;4.38;;;28.70;47.90;;;;;;6141356;22;86303;-88
2023/07/10 12:34:28;;;;;;;8.27;4.28;;;28.80;47.60;;;;;;6147580;22;87240;-89
2023/07/10 12:36:58;;;;;;;7.70;4.03;;;28.90;47.30;;;;;;6140799;22;85496;-89
2023/07/10 12:39:24;;;;;;;6.82;3.85;;;29.00;47.20;;;;;;6113281;22;86982;-88
2023/07/10 12:41:55;;;;;;;6.32;3.80;;;29.00;47.40;;;;;;6140761;22;85914;-86
2023/07/10 12:44:27;;;;;;;18.58;4.93;;;28.90;47.10;;;;;;6140163;22;86249;-88
2023/07/10 12:46:58;;;;;;;13.90;5.40;;;28.90;47.20;;;;;;6139622;22;86501;-89
2023/07/10 12:49:28;;;;;;;16.38;7.00;;;29.00;47.60;;;;;;6114106;22;86337;-92
2023/07/10 12:51:54;;;;;;;21.00;6.35;;;29.00;47.70;;;;;;6112297;22;89337;-88
2023/07/10 12:54:27;;;;;;;22.60;7.65;;;29.10;47.70;;;;;;6139660;22;86491;-89
2023/07/10 12:56:54;;;;;;;19.30;6.53;;;29.10;47.10;;;;;;6140657;22;86230;-89
2023/07/10 12:59:28;;;;;;;19.65;6.85;;;29.10;47.30;;;;;;6140327;22;86335;-89
2023/07/10 13:02:09;;;;;;;19.52;7.28;;;29.10;47.30;;;;;;6114449;22;89884;-89
2023/07/10 13:04:40;;;;;;;19.27;7.03;;;29.10;47.20;;;;;;6141805;22;86148;-91
2023/07/10 13:07:22;;;;;;;22.13;6.70;;;29.20;47.00;;;;;;6141023;22;86240;-90
2023/07/10 13:10:19;;;;;;;16.05;5.90;;;29.10;47.20;;;;;;6138936;22;86192;-88
2023/07/10 13:12:50;;;;;;;16.42;5.57;;;29.10;47.30;;;;;;6140686;22;86717;-89
2023/07/10 13:15:18;;;;;;;13.95;5.47;;;29.10;47.00;;;;;;6111955;22;87776;-87
2023/07/10 13:17:47;;;;;;;23.33;6.03;;;29.20;47.10;;;;;;6139999;22;86288;-85
2023/07/10 13:20:21;;;;;;;15.15;5.45;;;29.20;46.90;;;;;;6139580;22;86228;-85
2023/07/10 13:22:46;;;;;;;10.65;4.85;;;29.20;47.10;;;;;;6141369;22;86181;-84
2023/07/10 13:25:12;;;;;;;10.32;4.38;;;29.20;46.90;;;;;;6141607;22;86321;-87
2023/07/10 13:27:38;;;;;;;20.38;5.35;;;29.20;46.80;;;;;;6140248;22;86416;-85
2023/07/10 13:30:13;;;;;;;20.50;5.35;;;29.30;47.40;;;;;;6137806;22;86076;-88
2023/07/10 13:32:39;;;;;;;10.35;4.78;;;29.20;47.50;;;;;;6141672;22;86324;-88
2023/07/10 13:35:05;;;;;;;11.40;5.22;;;29.30;47.60;;;;;;6140861;22;86786;-89
2023/07/10 13:37:31;;;;;;;11.95;4.53;;;29.30;47.60;;;;;;6141655;22;86244;-86
2023/07/10 13:39:56;;;;;;;14.75;4.60;;;29.30;47.60;;;;;;6137177;22;86332;-85
2023/07/10 13:42:22;;;;;;;12.63;4.18;;;29.10;47.70;;;;;;6139461;22;87248;-87
2023/07/10 13:44:48;;;;;;;12.60;4.55;;;29.10;48.20;;;;;;6139322;22;86242;-88
2023/07/10 13:47:16;;;;;;;10.77;3.70;;;29.00;48.30;;;;;;6112748;22;86604;-86
2023/07/10 13:49:43;;;;;;;;;;;29.00;48.90;;;;;;6112048;22;86480;-88